Time;durP1;ratioP1;P1;durP2;ratioP2;P2;SDS_P1;SDS_P2;PMS_P1;PMS_P2;Temp;Humidity;BMP_temperature;BMP_pressure;BME280_temperature;BME280_humidity;BME280_pressure;Samples;Min_cycle;Max_cycle;Signal;HPM_P1;HPM_P2
2021/07/10 00:00:07;;;;;;;6.80;6.20;;;;;;;13.82;81.35;96051.88;4978874;28;20201;-79
2021/07/10 00:02:33;;;;;;;7.43;5.70;;;;;;;13.87;80.76;96047.00;4961486;28;20220;-79
2021/07/10 00:04:58;;;;;;;6.53;5.83;;;;;;;13.87;81.09;96041.78;4981663;28;20193;-78
2021/07/10 00:07:23;;;;;;;7.17;6.50;;;;;;;13.73;81.83;96037.13;4979815;28;20196;-77
2021/07/10 00:09:49;;;;;;;7.00;6.30;;;;;;;13.68;82.15;96033.34;4979038;28;20181;-78
2021/07/10 00:12:14;;;;;;;7.60;6.20;;;;;;;13.68;82.27;96026.31;4980343;28;20220;-78
2021/07/10 00:14:39;;;;;;;7.10;6.50;;;;;;;13.66;82.59;96028.28;4977867;28;20247;-79
2021/07/10 00:17:05;;;;;;;7.67;6.97;;;;;;;13.59;82.75;96027.25;4963763;28;20846;-79
2021/07/10 00:19:30;;;;;;;7.43;6.67;;;;;;;13.57;82.80;96026.59;4963602;28;20184;-79
2021/07/10 00:21:56;;;;;;;8.63;6.60;;;;;;;13.63;82.71;96023.38;4979148;28;20217;-79
2021/07/10 00:24:21;;;;;;;6.90;6.20;;;;;;;13.53;83.31;96025.28;4961585;28;20181;-78
2021/07/10 00:26:46;;;;;;;7.53;6.67;;;;;;;13.56;82.78;96019.75;4978818;28;20322;-79
2021/07/10 00:29:12;;;;;;;7.90;7.10;;;;;;;13.47;83.30;96018.88;4979647;28;20212;-79
2021/07/10 00:31:37;;;;;;;11.83;7.50;;;;;;;13.39;83.82;96012.78;4963115;28;20180;-79
2021/07/10 00:34:02;;;;;;;6.80;6.20;;;;;;;13.43;83.36;96006.28;4980056;28;20187;-78
2021/07/10 00:36:27;;;;;;;7.20;6.40;;;;;;;13.35;83.19;96006.25;4962581;28;20210;-79
2021/07/10 00:38:53;;;;;;;7.37;6.50;;;;;;;13.30;83.74;96004.09;4963309;28;20205;-77
2021/07/10 00:41:19;;;;;;;8.03;6.03;;;;;;;13.37;83.29;96007.72;4979249;28;20205;-77
2021/07/10 00:43:49;;;;;;;7.07;6.47;;;;;;;13.30;83.66;95999.69;4979441;28;20243;-78
2021/07/10 00:46:18;;;;;;;7.07;6.37;;;;;;;13.33;83.53;95999.38;4978525;28;20211;-78
2021/07/10 00:48:44;;;;;;;8.33;6.40;;;;;;;13.33;83.51;95994.16;4963529;28;20185;-78
2021/07/10 00:51:10;;;;;;;7.50;6.47;;;;;;;13.28;83.77;95988.59;4979166;28;20184;-79
2021/07/10 00:53:35;;;;;;;7.43;6.83;;;;;;;13.29;83.56;95986.81;4963278;28;20200;-77
2021/07/10 00:56:01;;;;;;;7.40;6.70;;;;;;;13.36;83.40;95989.63;4961747;28;20180;-79
2021/07/10 00:58:28;;;;;;;6.77;6.17;;;;;;;13.23;84.02;95992.63;4981136;28;20212;-78
2021/07/10 01:00:53;;;;;;;7.60;6.73;;;;;;;13.17;84.03;95985.41;4976097;28;20795;-78
2021/07/10 01:03:19;;;;;;;8.47;6.87;;;;;;;13.14;84.24;95991.72;4944536;29;20202;-78
2021/07/10 01:05:44;;;;;;;7.53;6.73;;;;;;;13.05;84.82;95990.84;4960536;29;20241;-78
2021/07/10 01:08:09;;;;;;;7.10;6.33;;;;;;;13.10;84.47;95990.41;4960120;28;20252;-78
2021/07/10 01:10:35;;;;;;;7.67;6.87;;;;;;;13.04;84.68;95988.41;4963504;28;20196;-79
2021/07/10 01:13:00;;;;;;;6.87;6.27;;;;;;;13.01;84.95;95986.91;4980859;28;20200;-78
2021/07/10 01:15:26;;;;;;;7.50;6.87;;;;;;;12.98;84.90;95982.00;4979344;28;20177;-78
2021/07/10 01:17:56;;;;;;;7.60;6.90;;;;;;;13.01;84.94;95978.28;4978883;28;20197;-78
2021/07/10 01:20:22;;;;;;;7.63;6.90;;;;;;;13.02;84.65;95975.53;4996195;28;20173;-78
2021/07/10 01:22:48;;;;;;;8.13;7.30;;;;;;;13.04;84.65;95970.97;4982164;28;20273;-79
2021/07/10 01:25:16;;;;;;;7.47;6.80;;;;;;;13.08;84.79;95970.69;4979952;28;20651;-78
2021/07/10 01:27:42;;;;;;;8.97;7.57;;;;;;;13.09;84.44;95967.91;4959804;28;20648;-78
2021/07/10 01:30:10;;;;;;;7.83;6.80;;;;;;;13.05;84.62;95969.16;4977744;28;20188;-77
2021/07/10 01:32:36;;;;;;;7.63;6.93;;;;;;;13.04;83.95;95973.56;4977464;28;20253;-78
2021/07/10 01:35:02;;;;;;;7.40;6.80;;;;;;;13.08;84.17;95965.47;4975631;28;20180;-78
2021/07/10 01:37:27;;;;;;;7.57;6.87;;;;;;;13.04;83.99;95962.31;4977847;28;20188;-77
2021/07/10 01:39:53;;;;;;;7.33;6.63;;;;;;;13.03;84.11;95958.91;4974835;28;20227;-77
2021/07/10 01:42:19;;;;;;;7.00;6.40;;;;;;;13.00;83.90;95956.59;4975878;28;20212;-77
2021/07/10 01:44:45;;;;;;;8.63;6.33;;;;;;;13.01;84.19;95954.81;4960048;28;20244;-78
2021/07/10 01:47:11;;;;;;;8.67;6.87;;;;;;;13.04;84.10;95944.91;4959905;28;20180;-76
2021/07/10 01:49:36;;;;;;;7.43;6.83;;;;;;;13.00;83.83;95943.56;4977209;28;20262;-79
2021/07/10 01:52:01;;;;;;;7.23;6.37;;;;;;;13.00;83.92;95942.75;4961674;28;20200;-78
2021/07/10 01:54:27;;;;;;;7.60;6.90;;;;;;;13.06;83.50;95942.13;4978948;28;20243;-78
2021/07/10 01:56:52;;;;;;;7.73;7.03;;;;;;;13.12;82.89;95938.91;4978523;28;20204;-79
2021/07/10 01:59:18;;;;;;;7.30;6.60;;;;;;;13.11;82.80;95939.88;4962319;28;20189;-78
2021/07/10 02:01:50;;;;;;;7.33;6.63;;;;;;;13.16;82.75;95940.22;4977255;28;20204;-76
2021/07/10 02:04:18;;;;;;;7.53;6.63;;;;;;;13.14;82.60;95942.19;4978213;28;20644;-77
2021/07/10 02:06:44;;;;;;;7.77;6.87;;;;;;;13.09;83.01;95941.03;4978210;28;20219;-77
2021/07/10 02:09:09;;;;;;;7.50;6.67;;;;;;;13.06;82.97;95942.13;4962105;28;20596;-79
2021/07/10 02:11:35;;;;;;;6.70;6.10;;;;;;;12.98;83.19;95922.03;4977554;28;20188;-78
2021/07/10 02:14:01;;;;;;;7.50;6.77;;;;;;;12.96;83.00;95917.94;4978722;28;20238;-78
2021/07/10 02:16:26;;;;;;;6.67;6.10;;;;;;;12.94;83.21;95917.28;4978400;28;20191;-79
2021/07/10 02:18:52;;;;;;;7.47;6.17;;;;;;;12.92;82.93;95920.06;4982401;28;20187;-77
2021/07/10 02:21:17;;;;;;;6.77;6.17;;;;;;;12.92;83.27;95924.44;4982263;28;20205;-79
2021/07/10 02:23:42;;;;;;;8.77;6.57;;;;;;;12.96;83.03;95917.94;4967867;28;20208;-77
2021/07/10 02:26:08;;;;;;;7.17;6.50;;;;;;;12.95;83.11;95924.94;4967507;28;20181;-78
2021/07/10 02:28:33;;;;;;;6.37;5.63;;;;;;;12.83;83.73;95920.16;4982771;28;20208;-77
2021/07/10 02:30:58;;;;;;;7.20;6.50;;;;;;;12.77;84.13;95917.19;4964100;29;20236;-77
2021/07/10 02:33:23;;;;;;;6.67;6.07;;;;;;;12.76;83.64;95905.13;4959969;28;20291;-78
2021/07/10 02:35:49;;;;;;;7.00;6.43;;;;;;;12.68;84.12;95912.88;4975105;28;20264;-77
2021/07/10 02:38:15;;;;;;;7.53;6.83;;;;;;;12.75;83.97;95903.50;4978788;28;20521;-77
2021/07/10 02:40:40;;;;;;;6.57;5.87;;;;;;;12.64;84.57;95902.91;4979253;28;20214;-77
2021/07/10 02:43:06;;;;;;;6.57;5.90;;;;;;;12.63;84.45;95904.72;4978799;28;20556;-77
2021/07/10 02:45:31;;;;;;;8.10;7.13;;;;;;;12.57;84.69;95905.31;4979142;28;20192;-79
2021/07/10 02:47:57;;;;;;;6.87;6.20;;;;;;;12.59;84.47;95903.34;4978749;28;20188;-77
2021/07/10 02:50:24;;;;;;;7.07;6.37;;;;;;;12.55;84.76;95906.44;4979264;28;20181;-77
2021/07/10 02:52:49;;;;;;;6.70;6.10;;;;;;;12.52;84.94;95904.09;4961509;28;20200;-77
2021/07/10 02:55:15;;;;;;;6.93;6.33;;;;;;;12.43;84.97;95904.03;4994726;28;20235;-78
2021/07/10 02:57:40;;;;;;;8.43;6.60;;;;;;;12.41;85.09;95894.75;4978658;28;20261;-79
2021/07/10 03:00:12;;;;;;;7.37;6.60;;;;;;;12.39;85.49;95901.91;4979418;28;20247;-79
2021/07/10 03:02:37;;;;;;;6.90;6.30;;;;;;;12.43;85.21;95903.22;4963947;28;20219;-77
2021/07/10 03:05:04;;;;;;;7.70;6.90;;;;;;;12.39;85.79;95901.91;4963237;28;20208;-79
2021/07/10 03:07:29;;;;;;;7.50;6.80;;;;;;;12.47;85.58;95907.19;4979482;28;20299;-78
2021/07/10 03:09:55;;;;;;;9.03;6.90;;;;;;;12.42;85.92;95899.81;4961610;28;20609;-78
2021/07/10 03:12:20;;;;;;;7.53;6.73;;;;;;;12.43;85.47;95895.41;4961878;28;20668;-78
2021/07/10 03:14:45;;;;;;;7.97;7.23;;;;;;;12.53;84.99;95901.34;4976664;28;20189;-77
2021/07/10 03:17:11;;;;;;;7.77;6.97;;;;;;;12.62;84.63;95900.44;4960963;28;20208;-78
2021/07/10 03:19:36;;;;;;;10.00;6.97;;;;;;;12.65;84.46;95897.56;4977118;28;20604;-77
2021/07/10 03:22:01;;;;;;;7.77;6.93;;;;;;;12.87;83.29;95900.63;4976942;28;20263;-77
2021/07/10 03:24:27;;;;;;;8.40;7.10;;;;;;;12.96;82.76;95899.69;4977102;28;20188;-77
2021/07/10 03:26:52;;;;;;;7.23;6.53;;;;;;;12.94;82.87;95901.66;4977032;28;20251;-77
2021/07/10 03:29:17;;;;;;;6.70;5.93;;;;;;;12.93;82.90;95900.84;4961265;28;20192;-78
2021/07/10 03:31:42;;;;;;;6.70;6.17;;;;;;;12.90;82.88;95900.34;4960809;28;20181;-77
2021/07/10 03:34:08;;;;;;;7.50;6.50;;;;;;;12.88;82.98;95891.81;4976829;28;20190;-76
2021/07/10 03:36:33;;;;;;;7.33;6.60;;;;;;;12.85;83.07;95892.16;4975755;28;20200;-77
2021/07/10 03:38:58;;;;;;;7.63;6.93;;;;;;;12.83;83.05;95891.50;4976689;28;20667;-78
2021/07/10 03:41:24;;;;;;;7.53;6.83;;;;;;;12.86;83.10;95896.38;4978427;28;20215;-78
2021/07/10 03:43:49;;;;;;;6.77;6.27;;;;;;;12.93;83.00;95893.03;4961539;28;20213;-77
2021/07/10 03:46:14;;;;;;;7.13;6.43;;;;;;;13.03;82.42;95885.09;4976844;28;20188;-77
2021/07/10 03:48:40;;;;;;;7.13;6.00;;;;;;;13.11;81.94;95890.34;4969835;28;20285;-77
2021/07/10 03:51:06;;;;;;;6.23;5.63;;;;;;;13.10;81.65;95896.53;4975832;28;20193;-78
2021/07/10 03:53:31;;;;;;;8.00;6.27;;;;;;;13.11;81.93;95894.75;4961599;28;20200;-78
2021/07/10 03:55:57;;;;;;;6.77;5.97;;;;;;;13.13;81.54;95885.78;4963113;28;20196;-78
2021/07/10 03:58:22;;;;;;;6.00;5.50;;;;;;;13.25;81.05;95883.75;4962500;28;20687;-79
2021/07/10 04:00:47;;;;;;;5.77;5.30;;;;;;;14.00;79.77;95887.28;4963048;28;20180;-78
2021/07/10 04:03:12;;;;;;;5.47;4.97;;;;;;;15.18;75.12;95891.19;4963076;28;20200;-78
2021/07/10 04:05:38;;;;;;;4.60;4.20;;;;;;;16.13;70.21;95899.00;4979600;28;20784;-78
2021/07/10 04:08:03;;;;;;;5.32;4.57;;;;;;;16.81;67.11;95887.72;4975962;28;20236;-77
2021/07/10 04:10:29;;;;;;;5.10;4.20;;;;;;;17.37;63.26;95896.00;4977965;28;20251;-78
2021/07/10 04:12:54;;;;;;;4.22;3.83;;;;;;;17.58;63.42;95889.19;4976820;28;20204;-78
2021/07/10 04:15:19;;;;;;;4.20;3.70;;;;;;;17.50;62.35;95896.19;4977400;28;20280;-77
2021/07/10 04:17:45;;;;;;;3.90;3.20;;;;;;;17.58;61.48;95890.03;4977208;28;20173;-78
2021/07/10 04:20:11;;;;;;;3.92;3.63;;;;;;;18.93;58.58;95888.44;4976214;28;20192;-79
2021/07/10 04:22:38;;;;;;;4.68;3.40;;;;;;;19.09;57.29;95892.59;4975374;28;20315;-79
2021/07/10 04:25:13;;;;;;;4.85;3.28;;;;;;;19.79;54.90;95893.44;4959888;28;20200;-78
2021/07/10 04:27:38;;;;;;;3.90;3.45;;;;;;;20.29;53.46;95904.53;4975968;28;20648;-78
2021/07/10 04:30:06;;;;;;;3.05;2.85;;;;;;;20.20;52.79;95905.72;4974115;28;20213;-78
2021/07/10 04:32:31;;;;;;;3.53;3.13;;;;;;;20.01;53.59;95897.56;4967755;28;20251;-78
2021/07/10 04:34:56;;;;;;;3.47;3.20;;;;;;;21.00;50.20;95891.66;4976075;28;20169;-78
2021/07/10 04:37:22;;;;;;;3.38;3.00;;;;;;;21.36;50.59;95890.41;4976428;28;20183;-78
2021/07/10 04:39:47;;;;;;;6.35;3.58;;;;;;;21.64;49.17;95898.88;4975828;28;20284;-77
2021/07/10 04:42:12;;;;;;;3.17;2.88;;;;;;;22.48;47.79;95900.56;4976319;28;20208;-79
2021/07/10 04:44:38;;;;;;;2.67;2.47;;;;;;;23.32;44.58;95896.69;4977245;28;20188;-79
2021/07/10 04:47:03;;;;;;;3.28;2.97;;;;;;;23.43;45.26;95897.81;4976692;28;20184;-79
2021/07/10 04:49:29;;;;;;;3.00;2.80;;;;;;;24.38;43.76;95910.59;4976814;28;20215;-79
2021/07/10 04:51:54;;;;;;;2.53;2.33;;;;;;;24.24;43.30;95913.41;4975805;28;20271;-79
2021/07/10 04:54:20;;;;;;;2.65;2.45;;;;;;;24.75;41.70;95912.13;4976851;28;20224;-79
2021/07/10 04:56:45;;;;;;;2.50;2.28;;;;;;;23.84;43.18;95913.06;4976907;28;20184;-80
2021/07/10 04:59:10;;;;;;;4.03;2.25;;;;;;;23.51;43.54;95910.78;4976827;28;20223;-79
2021/07/10 05:01:35;;;;;;;2.70;2.50;;;;;;;23.49;43.32;95906.69;4972004;28;20256;-79
2021/07/10 05:04:01;;;;;;;3.05;2.17;;;;;;;24.09;42.44;95912.19;4974193;28;20200;-78
2021/07/10 05:06:26;;;;;;;3.65;2.20;;;;;;;24.43;41.44;95910.75;4976684;28;20189;-80
2021/07/10 05:08:51;;;;;;;2.40;2.20;;;;;;;25.76;39.02;95910.25;4976349;28;20283;-78
2021/07/10 05:11:17;;;;;;;2.92;2.42;;;;;;;25.40;39.36;95903.31;4976725;28;20208;-78
2021/07/10 05:13:42;;;;;;;2.65;2.45;;;;;;;25.20;40.43;95908.19;4975517;28;20236;-79
2021/07/10 05:16:08;;;;;;;4.22;2.50;;;;;;;24.76;41.32;95904.97;4978243;28;20581;-79
2021/07/10 05:18:33;;;;;;;3.78;2.50;;;;;;;24.68;42.28;95911.41;4976276;28;20180;-80
2021/07/10 05:20:58;;;;;;;3.25;2.92;;;;;;;24.99;40.43;95915.63;4976943;28;20192;-80
2021/07/10 05:23:24;;;;;;;4.07;2.80;;;;;;;25.43;41.10;95908.97;4973711;28;20227;-79
2021/07/10 05:25:49;;;;;;;3.63;2.50;;;;;;;26.99;37.59;95910.72;4978535;28;20212;-79
2021/07/10 05:28:14;;;;;;;3.00;2.80;;;;;;;27.59;36.63;95910.88;4977502;28;20259;-78
2021/07/10 05:30:40;;;;;;;2.70;2.38;;;;;;;27.41;38.11;95918.34;4963209;28;20178;-78
2021/07/10 05:33:05;;;;;;;3.88;2.30;;;;;;;28.05;36.34;95914.16;4979203;28;20212;-80
2021/07/10 05:35:31;;;;;;;2.28;2.17;;;;;;;28.84;34.21;95920.91;4961828;28;20667;-79
2021/07/10 05:37:56;;;;;;;3.90;2.58;;;;;;;28.18;34.27;95912.94;4961233;28;20180;-78
2021/07/10 05:40:21;;;;;;;2.83;2.55;;;;;;;27.76;33.84;95902.06;4978711;28;20183;-79
2021/07/10 05:42:50;;;;;;;3.53;2.42;;;;;;;26.22;37.41;95909.31;4977460;28;20227;-80
2021/07/10 05:45:19;;;;;;;2.97;2.47;;;;;;;26.41;37.52;95891.31;4976019;28;20188;-80
2021/07/10 05:47:45;;;;;;;2.63;2.42;;;;;;;27.05;33.68;95894.59;4977418;28;20176;-80
2021/07/10 05:50:11;;;;;;;4.45;2.35;;;;;;;26.26;35.58;95896.34;4978725;28;20670;-80
2021/07/10 05:52:36;;;;;;;3.40;2.70;;;;;;;26.38;34.85;95896.34;4978679;28;20189;-79
2021/07/10 05:55:03;;;;;;;3.13;2.75;;;;;;;27.03;32.78;95895.88;4975087;28;20719;-80
2021/07/10 05:57:29;;;;;;;2.67;2.47;;;;;;;27.62;31.94;95898.88;4976447;28;20230;-81
2021/07/10 05:59:54;;;;;;;2.85;2.65;;;;;;;27.10;33.02;95901.84;4975955;28;20382;-78
2021/07/10 06:02:20;;;;;;;2.60;2.40;;;;;;;29.17;29.35;95898.47;4974494;28;20851;-78
2021/07/10 06:04:45;;;;;;;2.75;2.55;;;;;;;28.89;28.86;95903.09;4974335;28;20256;-78
2021/07/10 06:07:10;;;;;;;2.78;2.58;;;;;;;27.41;30.88;95897.81;4972010;28;20198;-79
2021/07/10 06:09:36;;;;;;;4.50;2.63;;;;;;;27.74;30.59;95901.47;4974888;28;20180;-79
2021/07/10 06:12:02;;;;;;;3.50;2.83;;;;;;;28.95;29.26;95907.38;4989556;28;20196;-79
2021/07/10 06:14:27;;;;;;;2.72;2.50;;;;;;;28.75;28.06;95904.50;4955933;28;20760;-79
2021/07/10 06:16:53;;;;;;;2.33;2.13;;;;;;;29.29;27.97;95909.78;4972135;28;20279;-77
2021/07/10 06:19:18;;;;;;;3.13;2.65;;;;;;;29.97;26.27;95897.38;4973975;28;20181;-78
2021/07/10 06:21:43;;;;;;;3.67;2.80;;;;;;;29.13;27.85;95902.72;4971561;28;20209;-80
2021/07/10 06:24:09;;;;;;;3.13;2.80;;;;;;;28.91;28.25;95905.50;4970031;28;20176;-78
2021/07/10 06:26:34;;;;;;;3.90;2.70;;;;;;;29.29;26.98;95893.75;4971069;28;20581;-78
2021/07/10 06:29:00;;;;;;;2.65;2.45;;;;;;;29.46;26.66;95897.06;4971726;28;20644;-77
2021/07/10 06:31:26;;;;;;;2.67;2.40;;;;;;;29.72;29.57;95894.56;4971701;28;20593;-78
2021/07/10 06:33:51;;;;;;;3.38;2.13;;;;;;;30.50;27.62;95895.44;4971812;28;20251;-77
2021/07/10 06:36:18;;;;;;;2.25;2.05;;;;;;;29.50;29.56;95897.38;4971795;28;20231;-79
2021/07/10 06:38:43;;;;;;;2.65;2.45;;;;;;;28.52;30.00;95896.81;4958129;28;20188;-77
2021/07/10 06:41:08;;;;;;;2.50;2.40;;;;;;;28.03;31.59;95894.91;4955480;28;20208;-77
2021/07/10 06:43:33;;;;;;;2.75;2.55;;;;;;;29.18;28.12;95895.56;4971714;28;20223;-77
2021/07/10 06:45:59;;;;;;;2.85;2.65;;;;;;;27.20;31.62;95891.34;4971694;28;20181;-79
2021/07/10 06:48:24;;;;;;;3.22;2.67;;;;;;;28.16;30.73;95893.72;4970609;28;20238;-77
2021/07/10 06:50:50;;;;;;;3.10;2.40;;;;;;;27.74;30.39;95896.97;4955271;28;20189;-77
2021/07/10 06:53:21;;;;;;;4.05;2.78;;;;;;;27.86;30.16;95894.97;4971345;28;20696;-77
2021/07/10 06:55:47;;;;;;;2.80;2.50;;;;;;;28.07;30.36;95890.69;4972995;28;20260;-78
2021/07/10 06:58:12;;;;;;;3.65;2.70;;;;;;;27.62;31.50;95894.34;4970296;28;20250;-77
2021/07/10 07:00:37;;;;;;;3.05;2.83;;;;;;;27.71;31.22;95885.97;4972458;28;20188;-78
2021/07/10 07:03:03;;;;;;;2.63;2.42;;;;;;;27.68;30.80;95886.47;4971099;28;20212;-77
2021/07/10 07:05:29;;;;;;;3.63;2.70;;;;;;;27.54;30.79;95885.97;4971300;28;20188;-77
2021/07/10 07:07:54;;;;;;;2.78;2.58;;;;;;;26.96;32.86;95884.56;4971674;28;20656;-79
2021/07/10 07:10:19;;;;;;;2.97;2.67;;;;;;;27.61;30.70;95879.41;4973917;28;20735;-79
2021/07/10 07:12:45;;;;;;;2.85;2.60;;;;;;;27.05;31.12;95872.47;4976246;28;20271;-78
2021/07/10 07:15:11;;;;;;;2.72;2.53;;;;;;;27.37;31.53;95870.81;4976608;28;20176;-78
2021/07/10 07:17:36;;;;;;;2.75;2.55;;;;;;;26.85;32.21;95866.78;4959057;28;20528;-79
2021/07/10 07:20:04;;;;;;;2.50;2.30;;;;;;;27.85;28.93;95876.53;4973757;28;20266;-77
2021/07/10 07:22:29;;;;;;;2.92;2.30;;;;;;;27.85;29.88;95865.88;4973573;28;20215;-78
2021/07/10 07:24:54;;;;;;;3.72;2.58;;;;;;;28.88;28.32;95860.50;4974623;28;20177;-78
2021/07/10 07:27:20;;;;;;;3.85;2.92;;;;;;;26.40;30.90;95862.28;4976408;28;20172;-77
2021/07/10 07:29:45;;;;;;;3.58;2.83;;;;;;;25.91;32.47;95854.72;4961147;28;20279;-78
2021/07/10 07:32:10;;;;;;;2.80;2.60;;;;;;;26.08;31.15;95851.31;4974669;28;20212;-79
2021/07/10 07:34:35;;;;;;;3.03;2.70;;;;;;;26.04;31.51;95856.28;4976454;28;20192;-78
2021/07/10 07:37:01;;;;;;;4.43;3.28;;;;;;;25.12;34.69;95849.00;4976115;28;20169;-77
2021/07/10 07:39:26;;;;;;;3.00;2.58;;;;;;;25.71;34.44;95851.66;4977751;28;20177;-77
2021/07/10 07:41:51;;;;;;;3.30;2.80;;;;;;;26.47;32.53;95857.63;4974631;28;20247;-76
2021/07/10 07:44:17;;;;;;;3.65;2.70;;;;;;;25.48;34.17;95852.47;4974968;28;20227;-76
2021/07/10 07:46:42;;;;;;;3.30;3.00;;;;;;;25.99;32.84;95853.53;4958873;28;20185;-78
2021/07/10 07:49:07;;;;;;;3.03;2.75;;;;;;;25.07;34.48;95846.22;4975993;28;20184;-78
2021/07/10 07:51:33;;;;;;;4.05;2.70;;;;;;;24.56;35.85;95850.31;4972769;28;20173;-77
2021/07/10 07:53:58;;;;;;;3.40;3.08;;;;;;;24.46;35.75;95843.94;4974763;28;20204;-78
2021/07/10 07:56:24;;;;;;;3.10;2.80;;;;;;;24.34;36.84;95846.56;4975360;28;20583;-77
2021/07/10 07:58:50;;;;;;;6.15;3.53;;;;;;;24.35;36.53;95845.53;4976415;28;20177;-77
2021/07/10 08:01:15;;;;;;;3.38;2.95;;;;;;;24.08;38.28;95846.91;4974967;28;20679;-78
2021/07/10 08:03:41;;;;;;;3.70;3.00;;;;;;;24.60;35.72;95831.28;4973357;28;20287;-77
2021/07/10 08:06:06;;;;;;;3.33;2.63;;;;;;;24.35;37.08;95836.75;4976009;28;20204;-77
2021/07/10 08:08:36;;;;;;;3.50;2.90;;;;;;;24.41;36.73;95841.16;4975668;28;20180;-77
2021/07/10 08:11:03;;;;;;;3.53;2.95;;;;;;;23.49;39.35;95838.59;4975349;28;20717;-78
2021/07/10 08:13:28;;;;;;;4.22;3.13;;;;;;;23.27;40.61;95846.19;4972688;28;20204;-78
2021/07/10 08:15:53;;;;;;;3.30;2.95;;;;;;;23.94;38.92;95836.47;4973317;28;20249;-78
2021/07/10 08:18:19;;;;;;;7.60;4.43;;;;;;;23.77;38.28;95843.44;4973697;28;20232;-76
2021/07/10 08:20:44;;;;;;;4.28;3.80;;;;;;;24.15;37.49;95847.63;4973694;28;20172;-75
2021/07/10 08:23:09;;;;;;;4.35;3.40;;;;;;;24.26;38.82;95841.53;4956934;28;20228;-76
2021/07/10 08:25:35;;;;;;;2.75;2.55;;;;;;;24.23;37.17;95839.34;4979911;28;20253;-76
2021/07/10 08:28:00;;;;;;;3.25;2.95;;;;;;;24.25;37.62;95837.28;4973426;28;20172;-76
2021/07/10 08:30:26;;;;;;;7.13;3.20;;;;;;;24.14;39.30;95838.03;4974505;28;20254;-77
2021/07/10 08:32:51;;;;;;;5.30;2.83;;;;;;;24.31;36.04;95828.41;4972977;28;20251;-76
2021/07/10 08:35:18;;;;;;;4.18;3.10;;;;;;;24.30;37.80;95829.44;4972236;28;20556;-75
2021/07/10 08:37:44;;;;;;;3.63;2.60;;;;;;;23.83;37.19;95833.75;4973086;28;20180;-76
2021/07/10 08:40:10;;;;;;;8.27;3.90;;;;;;;23.38;38.56;95826.91;4973775;28;20232;-75
2021/07/10 08:42:36;;;;;;;3.53;2.85;;;;;;;21.84;41.81;95821.34;4973737;28;20263;-76
2021/07/10 08:45:10;;;;;;;4.07;2.72;;;;;;;22.25;40.59;95816.44;4971804;28;20648;-77
2021/07/10 08:47:39;;;;;;;3.65;2.83;;;;;;;22.38;40.11;95817.41;4956918;28;20208;-76
2021/07/10 08:50:07;;;;;;;2.85;2.65;;;;;;;22.11;40.40;95811.47;4972833;28;20180;-76
2021/07/10 08:52:33;;;;;;;3.58;2.90;;;;;;;21.80;43.13;95807.72;4972523;28;20196;-77
2021/07/10 08:54:59;;;;;;;3.50;3.15;;;;;;;22.03;42.18;95808.03;4957089;28;20722;-77
2021/07/10 08:57:26;;;;;;;3.30;3.00;;;;;;;21.94;42.08;95803.19;4972240;28;20276;-77
2021/07/10 08:59:51;;;;;;;3.40;3.10;;;;;;;21.85;43.40;95807.13;4972982;28;20555;-76
2021/07/10 09:02:17;;;;;;;4.03;3.33;;;;;;;21.96;44.00;95809.09;4971669;28;20208;-76
2021/07/10 09:04:42;;;;;;;3.78;3.45;;;;;;;21.99;44.45;95800.72;4972658;28;20185;-76
2021/07/10 09:07:07;;;;;;;3.22;2.95;;;;;;;22.04;44.54;95798.25;4970584;28;20189;-76
2021/07/10 09:09:46;;;;;;;3.15;2.80;;;;;;;21.95;43.85;95804.81;4973604;28;20180;-76
2021/07/10 09:12:15;;;;;;;3.00;2.80;;;;;;;21.94;44.39;95816.41;4972172;28;20192;-75
2021/07/10 09:14:41;;;;;;;4.15;3.30;;;;;;;22.24;44.11;95809.53;4972511;28;20172;-76
2021/07/10 09:17:18;;;;;;;5.10;3.03;;;;;;;22.53;43.85;95807.31;4972126;28;20192;-76
2021/07/10 09:19:43;;;;;;;3.78;3.05;;;;;;;22.40;43.44;95805.56;4956273;28;20180;-77
2021/07/10 09:22:09;;;;;;;3.03;2.72;;;;;;;23.02;43.80;95806.50;4973405;28;20223;-77
2021/07/10 09:24:38;;;;;;;2.47;2.30;;;;;;;23.30;42.17;95816.59;4972283;28;20184;-76
2021/07/10 09:27:08;;;;;;;4.88;2.75;;;;;;;23.44;41.98;95806.66;4972100;28;20168;-76
2021/07/10 09:29:47;;;;;;;2.63;2.42;;;;;;;23.89;43.03;95806.34;4967568;28;20191;-76
2021/07/10 09:32:19;;;;;;;2.78;2.58;;;;;;;24.00;41.53;95802.91;4971528;28;20300;-76
2021/07/10 09:34:50;;;;;;;4.22;3.00;;;;;;;24.20;39.99;95806.09;4972181;28;20180;-76
2021/07/10 09:37:18;;;;;;;4.75;2.67;;;;;;;24.01;41.36;95802.69;4955890;28;20180;-76
2021/07/10 09:39:54;;;;;;;2.90;2.42;;;;;;;24.53;39.67;95804.81;4970889;28;20191;-76
2021/07/10 09:42:30;;;;;;;6.15;2.80;;;;;;;24.94;39.12;95798.63;4964031;28;20580;-77
2021/07/10 09:44:55;;;;;;;2.25;2.05;;;;;;;25.07;37.94;95802.91;4972310;28;20173;-77
2021/07/10 09:47:25;;;;;;;3.60;2.30;;;;;;;25.63;38.07;95802.25;4973507;28;20183;-76
2021/07/10 09:49:51;;;;;;;3.03;2.28;;;;;;;25.26;38.96;95800.94;4970784;28;20184;-76
2021/07/10 09:52:18;;;;;;;3.15;2.60;;;;;;;25.25;39.01;95796.66;4973301;28;20196;-76
2021/07/10 09:54:48;;;;;;;2.50;2.30;;;;;;;25.89;37.37;95787.63;4958177;28;20183;-77
2021/07/10 09:57:21;;;;;;;2.92;2.70;;;;;;;25.43;37.82;95785.88;4973156;28;20312;-76
2021/07/10 09:59:55;;;;;;;2.22;2.03;;;;;;;25.84;35.89;95786.72;4970926;28;20651;-77
2021/07/10 10:02:31;;;;;;;3.22;2.35;;;;;;;24.79;40.52;95779.69;4963370;28;20200;-77
2021/07/10 10:05:09;;;;;;;3.95;2.72;;;;;;;25.31;39.69;95782.44;4955668;28;20267;-77
2021/07/10 10:07:57;;;;;;;3.17;2.90;;;;;;;24.66;40.03;95779.91;4972065;28;20216;-77
2021/07/10 10:10:27;;;;;;;3.60;2.53;;;;;;;24.73;39.12;95777.94;4969841;28;20193;-77
2021/07/10 10:13:07;;;;;;;3.53;2.75;;;;;;;24.39;41.15;95776.88;4972705;28;20199;-77
2021/07/10 10:15:46;;;;;;;2.60;2.40;;;;;;;24.16;40.49;95780.25;4973362;28;20266;-77
2021/07/10 10:18:15;;;;;;;3.80;2.58;;;;;;;24.14;40.70;95777.03;4971921;28;20614;-75
2021/07/10 10:20:41;;;;;;;2.75;2.50;;;;;;;24.04;42.15;95766.16;4970513;28;20672;-74
2021/07/10 10:23:07;;;;;;;3.13;2.40;;;;;;;23.92;42.72;95763.44;4969892;28;20212;-75
2021/07/10 10:25:34;;;;;;;3.13;2.28;;;;;;;24.29;41.81;95766.78;4971665;28;20227;-76
2021/07/10 10:28:02;;;;;;;2.92;2.70;;;;;;;24.15;41.77;95773.34;4971493;28;20173;-75
2021/07/10 10:30:28;;;;;;;3.58;2.40;;;;;;;24.57;41.06;95766.97;4971399;28;20184;-75
2021/07/10 10:32:53;;;;;;;2.65;2.30;;;;;;;24.64;40.02;95763.38;4970032;28;20201;-75
2021/07/10 10:35:19;;;;;;;2.60;2.40;;;;;;;24.51;39.82;95759.13;4971568;28;20173;-76
2021/07/10 10:37:45;;;;;;;5.20;2.60;;;;;;;24.27;41.15;95752.94;4971442;28;20188;-75
2021/07/10 10:40:16;;;;;;;3.28;2.60;;;;;;;24.35;39.84;95760.59;4971202;28;20191;-76
2021/07/10 10:42:43;;;;;;;2.60;2.42;;;;;;;24.30;41.18;95753.31;4952981;28;20212;-76
2021/07/10 10:45:09;;;;;;;3.10;2.80;;;;;;;24.42;41.27;95740.06;4974355;28;20185;-76
2021/07/10 10:47:48;;;;;;;3.28;2.97;;;;;;;24.26;41.71;95744.16;4975027;28;20208;-77
2021/07/10 10:50:19;;;;;;;6.28;3.13;;;;;;;24.84;40.56;95734.66;4976491;28;20176;-76
2021/07/10 10:52:46;;;;;;;4.00;2.72;;;;;;;24.99;38.24;95731.50;4974702;28;20204;-77
2021/07/10 10:55:34;;;;;;;3.83;2.72;;;;;;;25.21;39.13;95726.44;4975168;28;20185;-76
2021/07/10 10:58:15;;;;;;;3.03;2.35;;;;;;;24.81;39.72;95721.81;4975512;28;20275;-76
2021/07/10 11:00:42;;;;;;;3.10;2.90;;;;;;;24.33;40.76;95722.88;4975505;28;20262;-77
2021/07/10 11:03:15;;;;;;;3.17;2.88;;;;;;;24.50;39.49;95718.50;4958891;28;20211;-77
2021/07/10 11:05:44;;;;;;;4.03;3.00;;;;;;;24.09;41.06;95719.31;4974801;28;20695;-77
2021/07/10 11:08:21;;;;;;;2.65;2.45;;;;;;;23.93;41.67;95712.81;4959021;28;20184;-77
2021/07/10 11:10:58;;;;;;;2.70;2.50;;;;;;;23.71;41.79;95709.09;4976051;28;20184;-77
2021/07/10 11:13:34;;;;;;;2.65;2.40;;;;;;;24.03;42.25;95704.34;4975590;28;20223;-76
2021/07/10 11:16:11;;;;;;;3.30;2.35;;;;;;;24.15;39.05;95699.03;4972290;28;20293;-75
2021/07/10 11:18:45;;;;;;;5.82;3.10;;;;;;;23.76;39.97;95701.25;4974582;28;20176;-76
2021/07/10 11:21:10;;;;;;;4.32;2.70;;;;;;;23.82;41.35;95697.69;4975129;28;20180;-77
2021/07/10 11:23:36;;;;;;;4.32;2.35;;;;;;;23.83;41.36;95694.00;4974122;28;20228;-75
2021/07/10 11:26:07;;;;;;;3.50;2.35;;;;;;;24.28;41.43;95693.50;4974192;28;20239;-77
2021/07/10 11:28:39;;;;;;;4.05;2.38;;;;;;;24.30;39.59;95700.22;4974890;28;20192;-74
2021/07/10 11:31:08;;;;;;;2.65;2.33;;;;;;;24.52;37.27;95691.72;4973264;28;20185;-76